createdAt,value
2023-01-17T00:02:16.757Z,14.45
2023-01-17T00:05:02.268Z,15.52
2023-01-17T00:07:49.473Z,16.73
2023-01-17T00:10:19.762Z,15.07
2023-01-17T00:12:52.474Z,14.73
2023-01-17T00:15:20.505Z,17.27
2023-01-17T00:17:48.396Z,16.92
2023-01-17T00:20:40.560Z,16.25
2023-01-17T00:23:38.345Z,11.65
2023-01-17T00:26:14.251Z,13.32
2023-01-17T00:28:42.760Z,16.63
2023-01-17T00:31:11.813Z,17.13
2023-01-17T00:33:39.057Z,16.77
2023-01-17T00:36:07.205Z,16.95
2023-01-17T00:38:36.894Z,16.55
2023-01-17T00:41:09.486Z,14.25
2023-01-17T00:43:55.420Z,15.00
2023-01-17T00:46:41.113Z,11.57
2023-01-17T00:49:27.194Z,11.35
2023-01-17T00:52:13.507Z,12.00
2023-01-17T00:54:59.098Z,9.02
2023-01-17T00:57:44.763Z,11.23
2023-01-17T01:00:31.483Z,13.70
2023-01-17T01:03:17.099Z,11.63
2023-01-17T01:06:02.838Z,8.48
2023-01-17T01:08:49.475Z,9.73
2023-01-17T01:11:39.051Z,11.52
2023-01-17T01:14:26.783Z,9.43
2023-01-17T01:17:12.426Z,8.60
2023-01-17T01:19:57.875Z,12.43
2023-01-17T01:22:43.680Z,14.35
2023-01-17T01:25:29.305Z,13.68
2023-01-17T01:28:41.177Z,12.63
2023-01-17T01:31:27.233Z,11.82
2023-01-17T01:33:54.585Z,11.23
2023-01-17T01:36:21.879Z,13.60
2023-01-17T01:38:50.414Z,13.23
2023-01-17T01:41:17.997Z,11.50
2023-01-17T01:43:46.698Z,9.70
2023-01-17T01:46:39.628Z,9.82
2023-01-17T01:49:25.099Z,8.52
2023-01-17T01:51:59.876Z,11.88
2023-01-17T01:54:34.870Z,12.18
2023-01-17T01:57:05.365Z,11.07
2023-01-17T01:59:33.965Z,12.25
2023-01-17T02:02:01.805Z,11.55
2023-01-17T02:04:29.442Z,20.58
2023-01-17T02:07:06.832Z,18.10
2023-01-17T02:09:34.609Z,15.50
2023-01-17T02:12:03.147Z,13.68
2023-01-17T02:14:30.385Z,11.80
2023-01-17T02:17:23.629Z,10.88
2023-01-17T02:20:05.854Z,11.80
2023-01-17T02:22:51.696Z,11.38
2023-01-17T02:25:27.855Z,10.68
2023-01-17T02:28:13.988Z,10.88
2023-01-17T02:30:50.353Z,11.80
2023-01-17T02:33:43.990Z,8.15
2023-01-17T02:36:31.996Z,8.48
2023-01-17T02:38:58.977Z,9.13
2023-01-17T02:41:34.909Z,7.85
2023-01-17T02:44:02.447Z,9.73
2023-01-17T02:46:29.564Z,10.05
2023-01-17T02:48:58.899Z,11.52
2023-01-17T02:51:39.089Z,9.23
2023-01-17T02:54:38.265Z,10.63
2023-01-17T02:57:08.152Z,7.68
2023-01-17T02:59:52.147Z,9.73
2023-01-17T03:02:27.611Z,7.63
2023-01-17T03:05:02.334Z,8.68
2023-01-17T03:07:30.713Z,9.23
2023-01-17T03:10:01.560Z,7.30
2023-01-17T03:12:32.609Z,8.20
2023-01-17T03:14:59.683Z,8.40
2023-01-17T03:17:32.018Z,8.45
2023-01-17T03:19:59.471Z,8.60
2023-01-17T03:22:26.550Z,10.90
2023-01-17T03:24:53.769Z,8.80
2023-01-17T03:27:20.837Z,7.53
2023-01-17T03:29:47.923Z,8.93
2023-01-17T03:32:14.993Z,7.70
2023-01-17T03:34:42.023Z,8.07
2023-01-17T03:37:09.059Z,7.13
2023-01-17T03:39:36.165Z,9.32
2023-01-17T03:42:03.262Z,8.45
2023-01-17T03:44:30.871Z,7.32
2023-01-17T03:46:57.977Z,7.65
2023-01-17T03:49:25.037Z,7.50
2023-01-17T03:51:52.136Z,9.45
2023-01-17T03:54:19.274Z,9.48
2023-01-17T03:56:46.301Z,9.18
2023-01-17T03:59:13.493Z,8.70
2023-01-17T04:01:40.701Z,7.32
2023-01-17T04:04:07.844Z,10.35
2023-01-17T04:06:34.853Z,8.80
2023-01-17T04:09:02.047Z,9.13
2023-01-17T04:11:29.232Z,9.82
2023-01-17T04:13:56.343Z,9.40
2023-01-17T04:16:28.556Z,9.52
2023-01-17T04:19:01.382Z,10.45
2023-01-17T04:21:37.576Z,8.88
2023-01-17T04:24:08.128Z,9.95
2023-01-17T04:26:35.869Z,10.43
2023-01-17T04:29:03.216Z,10.68
2023-01-17T04:31:30.566Z,9.52
2023-01-17T04:33:57.719Z,10.27
2023-01-17T04:36:24.734Z,9.95
2023-01-17T04:38:52.231Z,10.73
2023-01-17T04:41:19.277Z,11.25
2023-01-17T04:43:46.288Z,9.23
2023-01-17T04:46:13.506Z,11.00
2023-01-17T04:48:40.622Z,10.15
2023-01-17T04:51:07.721Z,10.05
2023-01-17T04:53:38.030Z,13.38
2023-01-17T04:56:05.469Z,9.77
2023-01-17T04:58:33.630Z,9.88
2023-01-17T05:01:05.566Z,8.38
2023-01-17T05:03:33.005Z,8.90
2023-01-17T05:06:01.033Z,7.82
2023-01-17T05:08:28.411Z,9.27
2023-01-17T05:10:56.274Z,8.98
2023-01-17T05:13:23.350Z,8.77
2023-01-17T05:15:50.597Z,8.75
2023-01-17T05:18:19.028Z,9.00
2023-01-17T05:20:46.200Z,9.35
2023-01-17T05:23:13.316Z,7.63
2023-01-17T05:25:44.448Z,8.75
2023-01-17T05:28:13.293Z,9.90
2023-01-17T05:30:40.457Z,8.63
2023-01-17T05:33:09.508Z,13.10
2023-01-17T05:35:37.214Z,10.93
2023-01-17T05:38:04.331Z,9.25
2023-01-17T05:40:34.096Z,7.88
2023-01-17T05:43:03.427Z,8.32
2023-01-17T05:45:32.174Z,9.45
2023-01-17T05:48:01.681Z,9.15
2023-01-17T05:50:31.935Z,7.30
2023-01-17T05:53:04.402Z,9.85
2023-01-17T05:55:32.223Z,7.93
2023-01-17T05:57:59.414Z,7.88
2023-01-17T06:00:27.307Z,10.00
2023-01-17T06:02:56.274Z,8.55
2023-01-17T06:05:24.874Z,11.75
2023-01-17T06:07:52.359Z,11.88
2023-01-17T06:10:21.004Z,8.90
2023-01-17T06:12:48.564Z,11.82
2023-01-17T06:15:17.938Z,8.85
2023-01-17T06:17:45.316Z,11.55
2023-01-17T06:20:13.324Z,9.55
2023-01-17T06:22:40.357Z,8.15
2023-01-17T06:25:08.777Z,9.93
2023-01-17T06:27:36.409Z,9.30
2023-01-17T06:30:04.457Z,7.53
2023-01-17T06:32:31.687Z,11.10
2023-01-17T06:34:58.851Z,9.07
2023-01-17T06:37:26.417Z,9.10
2023-01-17T06:39:53.447Z,10.32
2023-01-17T06:42:20.545Z,10.00
2023-01-17T06:44:47.637Z,9.10
2023-01-17T06:47:14.737Z,10.88
2023-01-17T06:49:41.950Z,10.80
2023-01-17T06:52:09.112Z,8.85
2023-01-17T06:54:36.206Z,11.50
2023-01-17T06:57:03.367Z,11.05
2023-01-17T06:59:30.488Z,13.80
2023-01-17T07:01:57.651Z,11.80
2023-01-17T07:04:24.892Z,13.05
2023-01-17T07:06:51.971Z,11.13
2023-01-17T07:09:18.984Z,10.68
2023-01-17T07:11:46.284Z,11.85
2023-01-17T07:14:14.745Z,10.60
2023-01-17T07:16:46.163Z,12.00
2023-01-17T07:19:13.371Z,11.55
2023-01-17T07:21:40.666Z,12.80
2023-01-17T07:24:09.195Z,11.98
2023-01-17T07:26:40.367Z,12.70
2023-01-17T07:29:07.722Z,11.00
2023-01-17T07:31:36.873Z,12.10
2023-01-17T07:34:04.266Z,11.57
2023-01-17T07:36:31.379Z,12.80
2023-01-17T07:38:58.480Z,12.93
2023-01-17T07:41:25.785Z,13.48
2023-01-17T07:43:56.385Z,17.83
2023-01-17T07:46:23.756Z,12.13
2023-01-17T07:48:51.006Z,14.25
2023-01-17T07:51:18.163Z,16.05
2023-01-17T07:53:45.312Z,14.95
2023-01-17T07:56:15.288Z,14.88
2023-01-17T07:58:43.058Z,12.82
2023-01-17T08:01:12.979Z,12.38
2023-01-17T08:03:40.584Z,14.55
2023-01-17T08:06:17.324Z,13.52
2023-01-17T08:08:45.024Z,13.73
2023-01-17T08:11:12.463Z,15.93
2023-01-17T08:13:40.327Z,14.18
2023-01-17T08:16:09.891Z,10.75
2023-01-17T08:18:37.554Z,13.13
2023-01-17T08:21:08.329Z,11.35
2023-01-17T08:23:51.982Z,11.63
2023-01-17T08:26:22.652Z,14.80
2023-01-17T08:29:00.892Z,15.27
2023-01-17T08:31:30.614Z,14.68
2023-01-17T08:33:58.109Z,12.93
2023-01-17T08:36:26.092Z,12.65
2023-01-17T08:38:53.931Z,14.20
2023-01-17T08:41:22.048Z,13.20
2023-01-17T08:43:50.335Z,13.20
2023-01-17T08:46:18.466Z,13.55
2023-01-17T08:48:46.471Z,10.05
2023-01-17T08:51:13.843Z,14.48
2023-01-17T08:53:41.018Z,14.18
2023-01-17T08:56:08.318Z,11.35
2023-01-17T08:58:36.011Z,12.85
2023-01-17T09:01:05.708Z,14.07
2023-01-17T09:03:34.284Z,12.30
2023-01-17T09:06:13.217Z,14.02
2023-01-17T09:08:40.846Z,12.52
2023-01-17T09:11:10.681Z,17.70
2023-01-17T09:13:38.756Z,13.75
2023-01-17T09:16:06.920Z,14.30
2023-01-17T09:18:35.853Z,14.60
2023-01-17T09:21:17.443Z,12.57
2023-01-17T09:23:45.101Z,11.77
2023-01-17T09:26:27.536Z,15.10
2023-01-17T09:28:55.165Z,13.00
2023-01-17T09:31:23.623Z,11.95
2023-01-17T09:33:52.288Z,12.68
2023-01-17T09:36:24.321Z,13.57
2023-01-17T09:38:56.632Z,12.63
2023-01-17T09:41:28.782Z,12.77
2023-01-17T09:44:17.912Z,12.60
2023-01-17T09:46:47.602Z,12.20
2023-01-17T09:49:39.751Z,14.85
2023-01-17T09:52:08.944Z,13.95
2023-01-17T09:54:42.493Z,13.60
2023-01-17T09:57:40.645Z,14.65
2023-01-17T10:00:22.904Z,13.57
2023-01-17T10:03:20.965Z,14.55
2023-01-17T10:06:20.221Z,18.75
2023-01-17T10:09:08.133Z,15.43
2023-01-17T10:11:44.091Z,16.08
2023-01-17T10:14:23.051Z,15.57
2023-01-17T10:16:52.878Z,16.15
2023-01-17T10:19:37.056Z,12.70
2023-01-17T10:22:41.092Z,14.18
2023-01-17T10:27:51.422Z,12.45
2023-01-17T10:30:26.548Z,10.88
2023-01-17T10:32:57.270Z,15.80
2023-01-17T10:35:34.183Z,14.98
2023-01-17T10:38:05.744Z,13.88
2023-01-17T10:40:50.434Z,15.48
2023-01-17T10:43:27.607Z,17.02
2023-01-17T10:45:57.151Z,13.27
2023-01-17T10:48:40.177Z,14.85
2023-01-17T10:51:35.726Z,12.45
2023-01-17T10:57:53.145Z,19.15
2023-01-17T11:00:35.646Z,15.13
2023-01-17T11:03:03.755Z,16.67
2023-01-17T11:05:33.004Z,13.18
2023-01-17T11:08:10.485Z,16.02
2023-01-17T11:10:43.802Z,14.77
2023-01-17T11:15:53.511Z,11.27
2023-01-17T11:18:22.132Z,15.93
2023-01-17T11:20:50.093Z,16.70
2023-01-17T11:23:30.213Z,11.68
2023-01-17T11:26:06.316Z,18.92
2023-01-17T11:28:35.839Z,16.73
2023-01-17T11:31:09.169Z,15.55
2023-01-17T11:33:48.324Z,20.05
2023-01-17T11:36:21.409Z,17.00
2023-01-17T11:39:14.153Z,14.63
2023-01-17T11:41:42.188Z,15.53
2023-01-17T11:44:31.027Z,15.98
2023-01-17T11:47:09.014Z,15.60
2023-01-17T11:49:36.438Z,15.85
2023-01-17T11:52:32.589Z,14.77
2023-01-17T11:55:00.577Z,13.57
2023-01-17T11:57:34.261Z,15.63
2023-01-17T12:00:24.999Z,15.45
2023-01-17T12:03:04.401Z,16.27
2023-01-17T12:06:03.115Z,16.55
2023-01-17T12:08:45.377Z,13.68
2023-01-17T12:11:22.875Z,15.55
2023-01-17T12:14:03.383Z,16.02
2023-01-17T12:16:55.436Z,15.20
2023-01-17T12:20:01.651Z,13.95
2023-01-17T12:22:46.458Z,14.43
2023-01-17T12:25:22.341Z,12.93
2023-01-17T12:28:15.962Z,14.90
2023-01-17T12:33:59.493Z,13.80
2023-01-17T12:36:57.286Z,14.77
2023-01-17T12:39:34.273Z,13.25
2023-01-17T12:42:11.031Z,14.20
2023-01-17T12:44:38.148Z,12.68
2023-01-17T12:47:06.604Z,13.40
2023-01-17T12:49:45.685Z,12.63
2023-01-17T12:52:44.796Z,13.73
2023-01-17T12:55:20.598Z,13.18
2023-01-17T12:57:57.339Z,11.77
2023-01-17T13:00:34.510Z,14.00
2023-01-17T13:03:35.254Z,11.95
2023-01-17T13:06:03.821Z,11.95
2023-01-17T13:08:43.028Z,11.73
2023-01-17T13:11:34.105Z,12.18
2023-01-17T13:14:38.964Z,12.38
2023-01-17T13:18:01.112Z,12.93
2023-01-17T13:20:47.750Z,14.35
2023-01-17T13:23:27.910Z,11.75
2023-01-17T13:25:58.820Z,12.68
2023-01-17T13:29:01.344Z,13.23
2023-01-17T13:32:05.741Z,11.57
2023-01-17T13:34:38.507Z,11.52
2023-01-17T13:37:37.128Z,11.55
2023-01-17T13:40:29.275Z,10.60
2023-01-17T13:43:01.047Z,13.48
2023-01-17T13:45:36.770Z,13.88
2023-01-17T13:48:14.230Z,11.25
2023-01-17T13:50:41.283Z,11.50
2023-01-17T13:53:37.050Z,11.13
2023-01-17T13:56:19.185Z,11.38
2023-01-17T13:58:54.712Z,10.43
2023-01-17T14:01:22.532Z,11.32
2023-01-17T14:03:53.191Z,11.82
2023-01-17T14:06:50.021Z,12.10
2023-01-17T14:09:40.518Z,11.02
2023-01-17T14:12:11.351Z,10.55
2023-01-17T14:14:50.239Z,11.48
2023-01-17T14:17:24.836Z,11.88
2023-01-17T14:20:09.987Z,9.75
2023-01-17T14:22:44.097Z,12.98
2023-01-17T14:25:20.049Z,10.85
2023-01-17T14:27:55.025Z,9.75
2023-01-17T14:30:22.621Z,9.35
2023-01-17T14:32:58.789Z,10.02
2023-01-17T14:35:29.921Z,10.63
2023-01-17T14:37:57.877Z,10.25
2023-01-17T14:40:27.544Z,10.98
2023-01-17T14:43:07.891Z,12.88
2023-01-17T14:45:36.623Z,10.32
2023-01-17T14:48:13.761Z,11.48
2023-01-17T14:50:42.717Z,10.25
2023-01-17T14:53:12.936Z,11.15
2023-01-17T14:55:52.982Z,12.90
2023-01-17T14:58:24.311Z,10.85
2023-01-17T15:01:07.328Z,11.77
2023-01-17T15:03:44.536Z,9.20
2023-01-17T15:06:18.046Z,10.98
2023-01-17T15:08:48.525Z,12.07
2023-01-17T15:11:22.953Z,11.93
2023-01-17T15:13:57.603Z,11.88
2023-01-17T15:16:29.646Z,12.10
2023-01-17T15:18:57.750Z,10.98
2023-01-17T15:21:29.827Z,12.60
2023-01-17T15:24:05.766Z,10.63
2023-01-17T15:26:43.356Z,12.52
2023-01-17T15:29:32.556Z,10.75
2023-01-17T15:32:02.284Z,9.55
2023-01-17T15:34:38.237Z,10.13
2023-01-17T15:37:40.128Z,9.77
2023-01-17T15:40:25.644Z,11.00
2023-01-17T15:43:02.185Z,12.27
2023-01-17T15:45:32.385Z,9.40
2023-01-17T15:48:52.164Z,9.20
2023-01-17T15:51:38.870Z,11.13
2023-01-17T15:54:52.932Z,9.50
2023-01-17T15:57:37.341Z,10.20
2023-01-17T16:00:20.428Z,10.77
2023-01-17T16:02:55.982Z,10.13
2023-01-17T16:05:23.554Z,10.38
2023-01-17T16:08:16.342Z,9.65
2023-01-17T16:10:47.174Z,11.85
2023-01-17T16:13:15.560Z,12.88
2023-01-17T16:15:50.141Z,11.98
2023-01-17T16:18:28.479Z,12.00
2023-01-17T16:21:14.201Z,12.68
2023-01-17T16:23:49.187Z,11.82
2023-01-17T16:26:17.092Z,12.70
2023-01-17T16:31:49.051Z,10.43
2023-01-17T16:35:06.438Z,14.68
2023-01-17T16:37:38.029Z,13.32
2023-01-17T16:40:29.686Z,13.60
2023-01-17T16:43:18.358Z,15.67
2023-01-17T16:46:06.543Z,16.52
2023-01-17T16:48:41.142Z,13.63
2023-01-17T16:51:19.816Z,15.32
2023-01-17T16:54:09.419Z,12.20
2023-01-17T16:57:07.178Z,15.93
2023-01-17T16:59:50.225Z,12.15
2023-01-17T17:02:23.264Z,13.10
2023-01-17T17:04:53.619Z,15.95
2023-01-17T17:07:23.553Z,11.95
2023-01-17T17:09:50.977Z,12.27
2023-01-17T17:12:19.482Z,14.00
2023-01-17T17:14:52.944Z,12.68
2023-01-17T17:17:20.209Z,14.13
2023-01-17T17:19:49.888Z,13.55
2023-01-17T17:22:17.191Z,13.48
2023-01-17T17:24:47.614Z,12.68
2023-01-17T17:27:14.964Z,13.05
2023-01-17T17:46:07.044Z,13.63
2023-01-17T17:48:34.836Z,12.80
2023-01-17T17:56:38.438Z,13.05
2023-01-17T17:59:09.042Z,15.77
2023-01-17T18:01:41.027Z,13.63
2023-01-17T18:04:11.753Z,13.88
2023-01-17T18:06:40.230Z,16.00
2023-01-17T18:09:09.037Z,14.57
2023-01-17T18:11:38.994Z,11.95
2023-01-17T18:14:12.689Z,13.70
2023-01-17T18:16:42.869Z,16.02
2023-01-17T18:27:36.238Z,14.95
2023-01-17T18:30:03.901Z,14.02
2023-01-17T18:32:34.940Z,13.85
2023-01-17T18:35:08.071Z,13.98
2023-01-17T18:37:39.228Z,13.77
2023-01-17T18:40:16.158Z,16.58
2023-01-17T18:42:45.765Z,12.73
2023-01-17T18:45:41.604Z,11.13
2023-01-17T18:48:17.470Z,11.27
2023-01-17T18:51:06.226Z,11.95
2023-01-17T18:53:41.065Z,12.40
2023-01-17T18:56:13.841Z,9.95
2023-01-17T19:00:06.201Z,10.80
2023-01-17T19:02:41.157Z,15.43
2023-01-17T19:05:11.962Z,13.75
2023-01-17T19:07:39.771Z,14.00
2023-01-17T19:10:10.562Z,16.33
2023-01-17T19:12:37.819Z,10.70
2023-01-17T19:15:08.392Z,14.05
2023-01-17T19:17:35.735Z,14.48
2023-01-17T19:20:03.270Z,11.20
2023-01-17T19:22:30.912Z,11.27
2023-01-17T19:25:05.097Z,19.52
2023-01-17T19:27:32.833Z,16.73
2023-01-17T19:30:02.701Z,15.02
2023-01-17T19:32:35.683Z,15.75
2023-01-17T19:35:11.608Z,13.88
2023-01-17T19:37:48.269Z,14.25
2023-01-17T19:40:19.391Z,13.27
2023-01-17T19:42:55.351Z,15.48
2023-01-17T19:45:22.810Z,13.48
2023-01-17T19:47:59.109Z,12.45
2023-01-17T19:50:28.562Z,11.25
2023-01-17T19:52:55.958Z,15.60
2023-01-17T20:06:33.421Z,12.85
2023-01-17T20:09:00.849Z,17.80
2023-01-17T20:11:29.754Z,13.52
2023-01-17T20:13:58.462Z,16.15
2023-01-17T20:16:28.558Z,13.38
2023-01-17T20:18:58.392Z,17.90
2023-01-17T20:21:33.592Z,12.80
2023-01-17T20:24:03.738Z,14.23
2023-01-17T20:26:36.367Z,13.48
2023-01-17T20:29:10.938Z,11.80
2023-01-17T20:31:40.813Z,10.50
2023-01-17T20:34:10.860Z,12.95
2023-01-17T20:36:40.984Z,14.40
2023-01-17T20:39:13.940Z,10.63
2023-01-17T20:41:43.183Z,12.25
2023-01-17T20:44:16.466Z,14.23
2023-01-17T20:49:17.787Z,14.88
2023-01-17T20:51:46.606Z,12.52
2023-01-17T20:54:16.436Z,11.70
2023-01-17T20:56:46.791Z,13.38
2023-01-17T20:59:16.757Z,14.13
2023-01-17T21:01:45.032Z,14.40
2023-01-17T21:04:13.364Z,14.02
2023-01-17T21:06:43.897Z,13.60
2023-01-17T21:09:17.372Z,12.30
2023-01-17T21:11:44.917Z,13.30
2023-01-17T21:14:12.259Z,13.57
2023-01-17T21:16:40.308Z,11.70
2023-01-17T21:19:14.397Z,12.98
2023-01-17T21:21:41.726Z,11.73
2023-01-17T21:24:16.454Z,14.82
2023-01-17T21:26:45.610Z,12.80
2023-01-17T21:29:16.369Z,12.18
2023-01-17T21:31:44.032Z,14.57
2023-01-17T21:34:13.946Z,11.88
2023-01-17T21:36:44.782Z,14.25
2023-01-17T21:39:19.969Z,13.07
2023-01-17T21:41:50.836Z,15.90
2023-01-17T21:44:22.833Z,14.35
2023-01-17T21:46:55.060Z,11.82
2023-01-17T21:51:54.099Z,12.60
2023-01-17T21:54:45.724Z,13.38
2023-01-17T21:57:33.909Z,17.00
2023-01-17T22:00:01.099Z,14.32
2023-01-17T22:02:29.215Z,13.98
2023-01-17T22:04:58.874Z,17.13
2023-01-17T22:07:36.643Z,13.23
2023-01-17T22:10:05.631Z,11.77
2023-01-17T22:12:33.067Z,11.40
2023-01-17T22:15:02.130Z,12.73
2023-01-17T22:17:31.411Z,13.68
2023-01-17T22:19:58.580Z,9.77
2023-01-17T22:22:25.854Z,12.15
2023-01-17T22:24:52.938Z,14.43
2023-01-17T22:27:20.568Z,11.20
2023-01-17T22:29:47.673Z,12.98
2023-01-17T22:32:14.764Z,10.82
2023-01-17T22:34:42.039Z,11.13
2023-01-17T22:37:10.270Z,15.88
2023-01-17T22:39:38.951Z,11.45
2023-01-17T22:42:06.485Z,8.57
2023-01-17T22:44:33.972Z,15.35
2023-01-17T22:47:01.117Z,12.50
2023-01-17T22:49:31.398Z,15.55
2023-01-17T22:52:01.211Z,12.23
2023-01-17T22:54:30.923Z,15.05
2023-01-17T22:56:58.966Z,15.40
2023-01-17T22:59:26.302Z,12.80
2023-01-17T23:01:53.857Z,13.65
2023-01-17T23:04:21.067Z,16.42
2023-01-17T23:06:48.232Z,18.05
2023-01-17T23:09:17.413Z,16.98
2023-01-17T23:11:51.015Z,13.38
2023-01-17T23:15:04.777Z,14.98
2023-01-17T23:20:17.756Z,13.43
2023-01-17T23:22:45.115Z,11.55
2023-01-17T23:25:13.819Z,13.45
2023-01-17T23:28:02.094Z,14.57
2023-01-17T23:30:35.693Z,16.13
2023-01-17T23:33:14.082Z,13.98
2023-01-17T23:35:44.077Z,15.02
2023-01-17T23:38:34.039Z,16.48
2023-01-17T23:41:25.368Z,14.55
2023-01-17T23:43:54.050Z,18.55
2023-01-17T23:46:21.765Z,17.23
2023-01-17T23:48:49.112Z,14.80
2023-01-17T23:51:17.432Z,16.80
2023-01-17T23:53:44.497Z,15.25
2023-01-17T23:56:24.068Z,14.25
2023-01-17T23:58:51.461Z,18.42
